createdAt,value
2017-09-19T00:00:33.023Z,64.05
2017-09-19T00:01:13.468Z,64.15
2017-09-19T00:01:53.921Z,63.95
2017-09-19T00:02:34.359Z,64.31
2017-09-19T00:03:14.805Z,63.76
2017-09-19T00:03:55.252Z,64.24
2017-09-19T00:04:35.700Z,64.05
2017-09-19T00:05:16.156Z,64.11
2017-09-19T00:05:56.604Z,63.85
2017-09-19T00:06:37.055Z,64.15
2017-09-19T00:07:17.502Z,64.24
2017-09-19T00:07:57.948Z,63.85
2017-09-19T00:08:38.398Z,63.92
2017-09-19T00:09:18.847Z,64.02
2017-09-19T00:09:59.301Z,64.05
2017-09-19T00:10:39.748Z,64.02
2017-09-19T00:11:20.195Z,64.4
2017-09-19T00:13:17.913Z,64.53
2017-09-19T00:13:58.356Z,64.5
2017-09-19T00:14:38.798Z,64.43
2017-09-19T00:15:19.247Z,64.4
2017-09-19T00:15:59.689Z,64.43
2017-09-19T00:16:40.138Z,64.15
2017-09-19T00:17:20.583Z,64.53
2017-09-19T00:18:01.029Z,64.43
2017-09-19T00:18:41.474Z,64.4
2017-09-19T00:19:21.925Z,64.43
2017-09-19T00:20:02.373Z,64.05
2017-09-19T00:20:42.821Z,64.5
2017-09-19T00:21:23.282Z,64.34
2017-09-19T00:22:03.732Z,64.31
2017-09-19T00:22:44.181Z,64.4
2017-09-19T00:23:24.618Z,64.34
2017-09-19T00:24:05.067Z,64.31
2017-09-19T00:24:45.506Z,64.31
2017-09-19T00:25:25.954Z,64.21
2017-09-19T00:26:06.401Z,64.4
2017-09-19T00:26:46.852Z,64.59
2017-09-19T00:27:27.327Z,64.4
2017-09-19T00:28:07.774Z,64.34
2017-09-19T00:28:48.231Z,64.4
2017-09-19T00:29:28.682Z,64.31
2017-09-19T00:30:09.132Z,64.15
2017-09-19T00:30:49.588Z,64.21
2017-09-19T00:31:30.036Z,64.21
2017-09-19T00:32:10.485Z,64.34
2017-09-19T00:32:50.933Z,64.21
2017-09-19T00:33:31.381Z,64.21
2017-09-19T00:34:11.823Z,64.24
2017-09-19T00:34:52.268Z,64.24
2017-09-19T00:35:32.746Z,64.43
2017-09-19T00:36:13.180Z,64.31
2017-09-19T00:36:53.629Z,64.24
2017-09-19T00:37:34.091Z,64.34
2017-09-19T00:38:14.526Z,64.11
2017-09-19T00:38:54.977Z,64.15
2017-09-19T00:39:35.495Z,64.34
2017-09-19T00:40:15.901Z,64.31
2017-09-19T00:40:56.340Z,64.34
2017-09-19T00:41:36.784Z,64.43
2017-09-19T00:42:17.236Z,64.43
2017-09-19T00:42:57.684Z,64.63
2017-09-19T00:43:38.126Z,64.53
2017-09-19T00:44:18.571Z,64.31
2017-09-19T00:44:59.014Z,64.4
2017-09-19T00:45:39.475Z,64.5
2017-09-19T00:46:19.917Z,64.43
2017-09-19T00:47:00.382Z,64.53
2017-09-19T00:47:40.833Z,64.43
2017-09-19T00:48:21.278Z,64.53
2017-09-19T00:49:01.719Z,64.43
2017-09-19T00:49:42.168Z,64.4
2017-09-19T00:50:22.619Z,64.43
2017-09-19T00:51:03.064Z,64.15
2017-09-19T00:51:43.511Z,64.53
2017-09-19T00:52:23.960Z,64.24
2017-09-19T00:53:04.414Z,64.31
2017-09-19T00:53:44.863Z,64.4
2017-09-19T00:54:25.310Z,64.53
2017-09-19T00:55:05.758Z,64.43
2017-09-19T00:55:46.205Z,64.59
2017-09-19T00:56:26.649Z,64.53
2017-09-19T00:57:07.087Z,64.4
2017-09-19T00:57:47.542Z,64.34
2017-09-19T00:58:27.987Z,64.11
2017-09-19T00:59:08.436Z,64.4
2017-09-19T00:59:48.886Z,64.5
2017-09-19T01:00:29.335Z,64.34
2017-09-19T01:01:09.773Z,64.31
2017-09-19T01:01:50.224Z,64.5
2017-09-19T01:02:30.668Z,64.63
2017-09-19T01:03:11.111Z,64.5
2017-09-19T01:03:51.577Z,64.34
2017-09-19T01:04:32.024Z,64.63
2017-09-19T01:05:12.481Z,64.43
2017-09-19T01:05:52.921Z,64.43
2017-09-19T01:06:33.375Z,64.53
2017-09-19T01:07:13.823Z,64.02
2017-09-19T01:07:54.271Z,63.95
2017-09-19T01:08:34.719Z,64.34
2017-09-19T01:09:15.162Z,64.02
2017-09-19T01:11:27.987Z,63.95
2017-09-19T01:12:08.429Z,63.82
2017-09-19T01:12:48.876Z,63.85
2017-09-19T01:13:29.324Z,63.95
2017-09-19T01:14:09.771Z,64.4
2017-09-19T01:14:50.219Z,63.95
2017-09-19T01:15:30.664Z,64.43
2017-09-19T01:16:11.107Z,64.53
2017-09-19T01:16:51.548Z,64.59
2017-09-19T01:17:31.987Z,64.63
2017-09-19T01:18:12.435Z,64.34
2017-09-19T01:18:52.880Z,64.5
2017-09-19T01:19:33.336Z,64.34
2017-09-19T01:20:13.780Z,64.11
2017-09-19T01:20:54.231Z,64.34
2017-09-19T01:21:34.676Z,64.24
2017-09-19T01:22:15.126Z,64.15
2017-09-19T01:22:55.581Z,64.34
2017-09-19T01:23:36.023Z,64.31
2017-09-19T01:24:16.467Z,64.21
2017-09-19T01:24:56.920Z,64.31
2017-09-19T01:25:37.384Z,64.21
2017-09-19T01:26:17.824Z,64.31
2017-09-19T01:26:58.274Z,64.31
2017-09-19T01:27:38.713Z,64.11
2017-09-19T01:28:19.160Z,64.4
2017-09-19T01:28:59.611Z,64.11
2017-09-19T01:29:40.063Z,64.21
2017-09-19T01:30:20.510Z,64.4
2017-09-19T01:31:00.945Z,64.21
2017-09-19T01:31:41.395Z,64.31
2017-09-19T01:32:21.844Z,64.4
2017-09-19T01:33:02.292Z,64.21
2017-09-19T01:33:42.740Z,64.31
2017-09-19T01:34:23.191Z,64.4
2017-09-19T01:35:03.632Z,64.31
2017-09-19T01:35:44.085Z,64.21
2017-09-19T01:36:24.536Z,64.31
2017-09-19T01:37:04.983Z,64.31
2017-09-19T01:37:45.436Z,64.21
2017-09-19T01:38:25.878Z,64.4
2017-09-19T01:39:06.323Z,64.31
2017-09-19T01:39:46.776Z,64.21
2017-09-19T01:40:27.222Z,64.21
2017-09-19T01:41:07.671Z,64.31
2017-09-19T01:41:48.109Z,64.21
2017-09-19T01:42:28.563Z,64.4
2017-09-19T01:43:09.006Z,64.31
2017-09-19T01:43:49.446Z,64.31
2017-09-19T01:44:29.920Z,64.21
2017-09-19T01:45:10.337Z,64.31
2017-09-19T01:45:50.787Z,64.11
2017-09-19T01:46:31.232Z,64.21
2017-09-19T01:47:11.690Z,64.11
2017-09-19T01:47:52.145Z,64.11
2017-09-19T01:48:32.592Z,64.11
2017-09-19T01:49:13.049Z,64.31
2017-09-19T01:49:53.499Z,64.11
2017-09-19T01:50:33.949Z,64.11
2017-09-19T01:51:14.393Z,64.11
2017-09-19T01:51:54.850Z,64.02
2017-09-19T01:52:35.299Z,64.21
2017-09-19T01:53:15.748Z,64.11
2017-09-19T01:53:56.194Z,64.11
2017-09-19T01:54:36.645Z,64.11
2017-09-19T01:55:17.089Z,64.02
2017-09-19T01:55:57.534Z,64.11
2017-09-19T01:56:37.978Z,64.11
2017-09-19T01:57:18.427Z,64.31
2017-09-19T01:57:58.872Z,64.11
2017-09-19T01:58:39.319Z,64.11
2017-09-19T01:59:19.763Z,63.92
2017-09-19T02:00:00.206Z,64.11
2017-09-19T02:00:40.674Z,64.02
2017-09-19T02:01:21.127Z,64.31
2017-09-19T02:02:01.581Z,64.02
2017-09-19T02:02:42.026Z,64.11
2017-09-19T02:03:22.477Z,64.11
2017-09-19T02:04:02.922Z,64.02
2017-09-19T02:04:43.369Z,64.11
2017-09-19T02:05:23.818Z,64.11
2017-09-19T02:06:04.266Z,64.11
2017-09-19T02:06:44.713Z,64.11
2017-09-19T02:07:25.157Z,64.11
2017-09-19T02:08:05.598Z,64.11
2017-09-19T02:08:46.043Z,64.15
2017-09-19T02:09:26.495Z,64.21
2017-09-19T02:10:06.941Z,64.11
2017-09-19T02:10:47.390Z,64.21
2017-09-19T02:11:27.835Z,64.31
2017-09-19T02:12:08.283Z,64.11
2017-09-19T02:12:48.728Z,64.21
2017-09-19T02:13:29.177Z,64.21
2017-09-19T02:14:09.615Z,64.11
2017-09-19T02:14:50.065Z,64.02
2017-09-19T02:15:30.511Z,64.31
2017-09-19T02:16:10.950Z,64.02
2017-09-19T02:16:51.404Z,64.11
2017-09-19T02:17:31.856Z,64.31
2017-09-19T02:18:12.308Z,64.02
2017-09-19T02:18:52.759Z,64.11
2017-09-19T02:19:33.208Z,64.21
2017-09-19T02:20:13.659Z,64.11
2017-09-19T02:20:54.162Z,64.02
2017-09-19T02:21:34.608Z,64.11
2017-09-19T02:22:15.055Z,64.31
2017-09-19T02:22:55.506Z,64.11
2017-09-19T02:23:35.963Z,64.21
2017-09-19T02:24:16.407Z,64.21
2017-09-19T02:24:56.852Z,64.11
2017-09-19T02:25:37.316Z,64.21
2017-09-19T02:26:17.757Z,64.31
2017-09-19T02:26:58.207Z,64.11
2017-09-19T02:27:38.652Z,64.11
2017-09-19T02:28:19.098Z,64.31
2017-09-19T02:28:59.553Z,64.11
2017-09-19T02:29:40.000Z,64.11
2017-09-19T02:30:20.446Z,64.11
2017-09-19T02:31:00.890Z,64.31
2017-09-19T02:31:41.336Z,64.11
2017-09-19T02:32:21.788Z,64.31
2017-09-19T02:33:02.233Z,64.11
2017-09-19T02:33:42.685Z,64.11
2017-09-19T02:34:23.131Z,64.11
2017-09-19T02:35:03.580Z,63.92
2017-09-19T02:35:44.037Z,64.11
2017-09-19T02:36:24.473Z,64.21
2017-09-19T02:37:04.917Z,64.11
2017-09-19T02:37:45.367Z,64.11
2017-09-19T02:38:25.813Z,64.02
2017-09-19T02:39:06.260Z,64.21
2017-09-19T02:39:46.708Z,64.02
2017-09-19T02:40:27.165Z,64.02
2017-09-19T02:41:07.631Z,63.92
2017-09-19T02:41:48.077Z,64.02
2017-09-19T02:42:28.527Z,64.02
2017-09-19T02:43:08.981Z,64.69
2017-09-19T02:43:49.433Z,64.21
2017-09-19T02:44:29.887Z,64.21
2017-09-19T02:45:10.335Z,64.21
2017-09-19T02:45:50.801Z,64.11
2017-09-19T02:46:31.246Z,64.21
2017-09-19T02:47:11.688Z,64.21
2017-09-19T02:47:52.130Z,63.92
2017-09-19T02:48:32.578Z,64.11
2017-09-19T02:49:13.017Z,64.11
2017-09-19T02:49:53.483Z,64.21
2017-09-19T02:50:33.911Z,64.21
2017-09-19T02:51:14.369Z,64.21
2017-09-19T02:51:54.814Z,64.21
2017-09-19T02:52:35.262Z,64.31
2017-09-19T02:53:15.680Z,64.02
2017-09-19T02:53:56.127Z,64.21
2017-09-19T02:54:36.587Z,63.92
2017-09-19T02:55:17.000Z,64.02
2017-09-19T02:55:57.445Z,64.31
2017-09-19T02:56:37.893Z,64.21
2017-09-19T02:57:18.339Z,64.21
2017-09-19T02:57:58.789Z,64.31
2017-09-19T02:58:39.239Z,64.21
2017-09-19T02:59:19.679Z,64.11
2017-09-19T03:00:00.123Z,64.11
2017-09-19T03:00:40.583Z,64.31
2017-09-19T03:01:21.023Z,64.02
2017-09-19T03:02:01.474Z,64.02
2017-09-19T03:02:41.925Z,64.11
2017-09-19T03:03:22.368Z,64.11
2017-09-19T03:04:02.818Z,64.02
2017-09-19T03:04:43.265Z,64.11
2017-09-19T03:05:23.715Z,64.11
2017-09-19T03:06:04.166Z,64.31
2017-09-19T03:06:44.610Z,64.11
2017-09-19T03:07:25.062Z,64.11
2017-09-19T03:08:05.518Z,64.11
2017-09-19T03:08:45.973Z,64.02
2017-09-19T03:09:26.416Z,64.11
2017-09-19T03:10:06.863Z,64.02
2017-09-19T03:10:47.300Z,64.21
2017-09-19T03:11:27.760Z,64.11
2017-09-19T03:12:08.187Z,64.21
2017-09-19T03:12:48.636Z,64.21
2017-09-19T03:13:29.113Z,63.92
2017-09-19T03:14:09.521Z,64.02
2017-09-19T03:14:49.989Z,64.69
2017-09-19T03:15:30.445Z,64.69
2017-09-19T03:16:10.884Z,64.79
2017-09-19T03:16:51.336Z,64.59
2017-09-19T03:17:31.791Z,64.79
2017-09-19T03:18:12.236Z,64.59
2017-09-19T03:18:52.685Z,64.5
2017-09-19T03:19:33.134Z,64.02
2017-09-19T03:20:13.580Z,64.11
2017-09-19T03:20:54.030Z,64.69
2017-09-19T03:21:34.479Z,64.02
2017-09-19T03:22:14.929Z,64.69
2017-09-19T03:22:55.384Z,64.79
2017-09-19T03:23:35.837Z,64.69
2017-09-19T03:24:16.331Z,64.69
2017-09-19T03:24:56.780Z,64.69
2017-09-19T03:25:37.227Z,64.69
2017-09-19T03:26:17.692Z,64.31
2017-09-19T03:26:58.132Z,64.59
2017-09-19T03:27:38.580Z,64.69
2017-09-19T03:28:19.028Z,64.79
2017-09-19T03:28:59.484Z,64.69
2017-09-19T03:29:39.919Z,64.59
2017-09-19T03:30:20.352Z,64.59
2017-09-19T03:31:00.792Z,64.69
2017-09-19T03:31:41.233Z,64.69
2017-09-19T03:32:21.684Z,64.79
2017-09-19T03:33:02.129Z,63.92
2017-09-19T03:33:42.572Z,64.69
2017-09-19T03:34:23.025Z,64.02
2017-09-19T03:35:03.477Z,64.02
2017-09-19T03:35:43.922Z,64.21
2017-09-19T03:36:24.371Z,64.69
2017-09-19T03:37:04.811Z,64.59
2017-09-19T03:37:45.267Z,64.5
2017-09-19T03:38:25.715Z,64.5
2017-09-19T03:39:06.195Z,64.89
2017-09-19T03:39:46.630Z,64.79
2017-09-19T03:40:27.085Z,64.69
2017-09-19T03:41:07.531Z,64.59
2017-09-19T03:41:47.980Z,64.59
2017-09-19T03:42:28.431Z,64.69
2017-09-19T03:43:08.883Z,64.89
2017-09-19T03:43:49.331Z,64.89
2017-09-19T03:44:29.791Z,64.5
2017-09-19T03:45:10.240Z,64.59
2017-09-19T03:45:50.693Z,64.69
2017-09-19T03:46:31.137Z,64.69
2017-09-19T03:47:11.577Z,64.69
2017-09-19T03:47:52.026Z,64.59
2017-09-19T03:48:32.483Z,64.59
2017-09-19T03:49:12.936Z,64.59
2017-09-19T03:49:53.363Z,64.69
2017-09-19T03:50:33.801Z,64.98
2017-09-19T03:51:14.266Z,64.69
2017-09-19T03:51:54.714Z,64.79
2017-09-19T03:52:35.167Z,65.47
2017-09-19T03:53:15.609Z,65.3
2017-09-19T03:53:56.057Z,65.08
2017-09-19T03:54:36.507Z,65.47
2017-09-19T03:55:16.965Z,65.17
2017-09-19T03:55:57.380Z,65.17
2017-09-19T03:56:37.828Z,65.37
2017-09-19T03:57:18.269Z,65.37
2017-09-19T03:57:58.758Z,65.37
2017-09-19T03:58:39.135Z,64.98
2017-09-19T03:59:19.581Z,65.47
2017-09-19T04:00:00.031Z,64.98
2017-09-19T04:00:40.479Z,65.17
2017-09-19T04:01:20.928Z,64.98
2017-09-19T04:02:01.375Z,64.89
2017-09-19T04:02:41.813Z,65.17
2017-09-19T04:03:22.265Z,64.79
2017-09-19T04:04:02.721Z,64.89
2017-09-19T04:04:43.169Z,64.5
2017-09-19T04:05:23.616Z,64.4
2017-09-19T04:06:04.078Z,64.69
2017-09-19T04:06:44.530Z,64.5
2017-09-19T04:07:24.970Z,64.79
2017-09-19T04:08:05.415Z,64.72
2017-09-19T04:08:45.840Z,64.59
2017-09-19T04:09:26.282Z,64.59
2017-09-19T04:10:06.729Z,64.63
2017-09-19T04:10:47.177Z,64.69
2017-09-19T04:11:27.630Z,64.82
2017-09-19T04:12:08.088Z,64.4
2017-09-19T04:12:48.528Z,64.34
2017-09-19T04:13:28.977Z,64.53
2017-09-19T04:14:09.425Z,64.02
2017-09-19T04:14:49.875Z,64.24
2017-09-19T04:15:30.368Z,64.72
2017-09-19T04:16:10.886Z,63.92
2017-09-19T04:16:51.325Z,64.05
2017-09-19T04:17:31.772Z,64.72
2017-09-19T04:18:12.216Z,64.72
2017-09-19T04:18:52.654Z,64.34
2017-09-19T04:19:33.111Z,64.72
2017-09-19T04:20:13.558Z,64.72
2017-09-19T04:20:54.006Z,64.72
2017-09-19T04:23:11.897Z,64.05
2017-09-19T04:23:52.315Z,64.72
2017-09-19T04:24:32.759Z,64.24
2017-09-19T04:25:13.207Z,64.24
2017-09-19T04:25:53.650Z,64.15
2017-09-19T04:26:34.095Z,64.05
2017-09-19T04:27:14.550Z,64.15
2017-09-19T04:27:54.994Z,64.15
2017-09-19T04:28:35.438Z,64.15
2017-09-19T04:29:15.882Z,64.24
2017-09-19T04:29:56.323Z,64.34
2017-09-19T04:30:36.768Z,64.15
2017-09-19T04:31:17.207Z,64.15
2017-09-19T04:31:57.649Z,64.34
2017-09-19T04:32:38.104Z,64.24
2017-09-19T04:33:18.540Z,64.15
2017-09-19T04:33:58.990Z,64.43
2017-09-19T04:34:39.434Z,64.53
2017-09-19T04:35:19.887Z,64.53
2017-09-19T04:36:00.333Z,64.05
2017-09-19T04:36:40.808Z,63.95
2017-09-19T04:37:21.254Z,64.24
2017-09-19T04:38:01.689Z,64.15
2017-09-19T04:38:42.141Z,63.95
2017-09-19T04:39:22.589Z,64.34
2017-09-19T04:40:03.044Z,64.05
2017-09-19T04:40:43.499Z,63.95
2017-09-19T04:41:23.945Z,64.15
2017-09-19T04:42:04.393Z,64.05
2017-09-19T04:42:44.838Z,63.95
2017-09-19T04:43:25.290Z,63.95
2017-09-19T04:44:05.744Z,63.47
2017-09-19T04:44:46.193Z,63.67
2017-09-19T04:45:26.645Z,63.76
2017-09-19T04:46:07.094Z,63.85
2017-09-19T04:46:47.541Z,63.76
2017-09-19T04:47:27.988Z,63.67
2017-09-19T04:48:08.465Z,63.47
2017-09-19T04:48:48.899Z,63.47
2017-09-19T04:49:29.337Z,63.37
2017-09-19T04:50:09.787Z,63.47
2017-09-19T04:50:50.242Z,63.47
2017-09-19T04:51:30.689Z,63.37
2017-09-19T04:52:11.139Z,63.37
2017-09-19T04:52:51.584Z,63.37
2017-09-19T04:53:32.027Z,63.47
2017-09-19T04:54:12.475Z,63.28
2017-09-19T04:54:52.922Z,63.76
2017-09-19T04:55:33.399Z,63.47
2017-09-19T04:56:13.833Z,63.6
2017-09-19T04:56:54.288Z,63.37
2017-09-19T04:57:34.741Z,63.76
2017-09-19T04:58:15.175Z,63.85
2017-09-19T04:58:55.622Z,63.95
2017-09-19T04:59:36.066Z,63.85
2017-09-19T05:00:16.514Z,63.47
2017-09-19T05:00:56.962Z,63.28
2017-09-19T05:01:37.410Z,63.85
2017-09-19T05:02:17.846Z,63.95
2017-09-19T05:02:58.291Z,63.47
2017-09-19T05:03:38.735Z,63.37
2017-09-19T05:04:19.180Z,63.76
2017-09-19T05:04:59.623Z,63.47
2017-09-19T05:05:40.075Z,63.76
2017-09-19T05:06:20.528Z,63.76
2017-09-19T05:07:00.970Z,63.47
2017-09-19T05:07:41.424Z,63.95
2017-09-19T05:08:21.878Z,63.76
2017-09-19T05:09:02.332Z,63.57
2017-09-19T05:09:42.787Z,63.37
2017-09-19T05:10:23.241Z,63.47
2017-09-19T05:11:03.687Z,63.28
2017-09-19T05:11:44.148Z,63.28
2017-09-19T05:12:24.590Z,63.09
2017-09-19T05:13:05.039Z,63.37
2017-09-19T05:13:45.488Z,63.28
2017-09-19T05:14:25.933Z,63.09
2017-09-19T05:15:06.417Z,62.99
2017-09-19T05:15:46.868Z,63.02
2017-09-19T05:16:27.306Z,63.18
2017-09-19T05:17:07.764Z,63.18
2017-09-19T05:17:48.195Z,63.18
2017-09-19T05:18:28.653Z,63.02
2017-09-19T05:19:09.077Z,63.09
2017-09-19T05:19:49.537Z,63.47
2017-09-19T05:20:29.978Z,63.09
2017-09-19T05:21:10.569Z,63.47
2017-09-19T05:22:58.076Z,63.28
2017-09-19T05:23:38.545Z,63.28
2017-09-19T05:24:18.993Z,63.28
2017-09-19T05:24:59.442Z,63.47
2017-09-19T05:25:39.884Z,63.28
2017-09-19T05:26:20.334Z,63.09
2017-09-19T05:27:00.785Z,63.28
2017-09-19T05:27:41.231Z,63.47
2017-09-19T05:28:21.672Z,62.99
2017-09-19T05:29:02.123Z,63.47
2017-09-19T05:29:42.574Z,63.28
2017-09-19T05:30:23.018Z,63.09
2017-09-19T05:31:03.463Z,63.09
2017-09-19T05:31:43.911Z,63.47
2017-09-19T05:32:24.354Z,63.09
2017-09-19T05:33:04.782Z,63.47
2017-09-19T05:33:45.231Z,63.09
2017-09-19T05:34:25.669Z,63.09
2017-09-19T05:35:06.185Z,63.28
2017-09-19T05:35:46.641Z,63.18
2017-09-19T05:36:27.087Z,63.18
2017-09-19T05:37:07.525Z,63.09
2017-09-19T05:37:47.974Z,63.09
2017-09-19T05:38:28.419Z,62.99
2017-09-19T05:39:08.914Z,63.18
2017-09-19T05:39:49.342Z,62.99
2017-09-19T05:40:29.787Z,63.18
2017-09-19T05:41:10.259Z,62.99
2017-09-19T05:41:50.698Z,62.99
2017-09-19T05:43:43.285Z,62.79
2017-09-19T05:44:23.726Z,62.99
2017-09-19T05:45:04.168Z,62.89
2017-09-19T05:45:44.614Z,62.89
2017-09-19T05:46:25.056Z,62.89
2017-09-19T05:47:05.506Z,62.99
2017-09-19T05:47:45.960Z,62.89
2017-09-19T05:48:26.416Z,62.99
2017-09-19T05:49:06.846Z,62.99
2017-09-19T05:49:47.291Z,62.79
2017-09-19T05:50:27.742Z,62.99
2017-09-19T05:51:08.192Z,62.79
2017-09-19T05:51:48.698Z,62.79
2017-09-19T05:52:29.168Z,62.7
2017-09-19T05:53:09.727Z,62.99
2017-09-19T05:53:50.168Z,62.7
2017-09-19T05:54:30.817Z,62.89
2017-09-19T05:55:11.266Z,62.79
2017-09-19T05:55:51.716Z,62.79
2017-09-19T05:56:32.158Z,62.79
2017-09-19T05:57:12.601Z,62.79
2017-09-19T05:57:53.051Z,62.89
2017-09-19T05:58:33.499Z,62.7
2017-09-19T05:59:13.951Z,62.79
2017-09-19T05:59:54.397Z,62.79
2017-09-19T06:00:34.855Z,62.79
2017-09-19T06:01:15.301Z,62.79
2017-09-19T06:01:55.752Z,62.7
2017-09-19T06:02:36.203Z,63.09
2017-09-19T06:03:16.648Z,62.99
2017-09-19T06:03:57.101Z,62.7
2017-09-19T06:04:37.553Z,62.99
2017-09-19T06:05:18.002Z,62.79
2017-09-19T06:05:58.467Z,62.99
2017-09-19T06:06:38.911Z,62.79
2017-09-19T06:07:19.364Z,62.79
2017-09-19T06:07:59.804Z,62.79
2017-09-19T06:08:40.253Z,62.7
2017-09-19T06:09:21.052Z,62.79
2017-09-19T06:10:01.363Z,62.79
2017-09-19T06:10:41.800Z,62.79
2017-09-19T06:11:22.235Z,62.7
2017-09-19T06:12:02.692Z,62.99
2017-09-19T06:12:43.121Z,63.09
2017-09-19T06:13:23.569Z,62.99
2017-09-19T06:14:04.138Z,62.99
2017-09-19T06:14:44.621Z,62.99
2017-09-19T06:15:25.077Z,62.99
2017-09-19T06:16:05.558Z,62.99
2017-09-19T06:16:46.015Z,62.89
2017-09-19T06:17:26.463Z,62.89
2017-09-19T06:18:06.915Z,62.99
2017-09-19T06:18:47.366Z,62.89
2017-09-19T06:20:45.145Z,62.99
2017-09-19T06:21:26.297Z,63.18
2017-09-19T06:22:06.746Z,63.09
2017-09-19T06:22:47.212Z,62.99
2017-09-19T06:23:27.737Z,62.99
2017-09-19T06:24:08.177Z,62.99
2017-09-19T06:24:48.617Z,63.09
2017-09-19T06:25:29.058Z,63.09
2017-09-19T06:26:09.508Z,62.99
2017-09-19T06:26:49.954Z,62.99
2017-09-19T06:27:30.493Z,63.09
2017-09-19T06:28:10.934Z,62.99
2017-09-19T06:28:51.505Z,63.18
2017-09-19T06:29:31.881Z,63.28
2017-09-19T06:30:12.328Z,62.89
2017-09-19T06:30:52.771Z,62.89
2017-09-19T06:31:33.219Z,63.28
2017-09-19T06:32:13.673Z,63.18
2017-09-19T06:32:54.093Z,63.28
2017-09-19T06:33:34.537Z,62.99
2017-09-19T06:34:14.980Z,63.18
2017-09-19T06:34:55.486Z,63.28
2017-09-19T06:35:35.929Z,62.89
2017-09-19T06:36:16.372Z,62.99
2017-09-19T06:36:56.872Z,62.99
2017-09-19T06:38:44.645Z,63.09
2017-09-19T06:39:25.098Z,63.18
2017-09-19T06:40:05.541Z,63.28
2017-09-19T06:40:45.986Z,63.09
2017-09-19T06:41:26.446Z,63.28
2017-09-19T06:42:06.893Z,62.99
2017-09-19T06:42:47.331Z,62.99
2017-09-19T06:43:27.779Z,63.28
2017-09-19T06:44:08.228Z,63.09
2017-09-19T06:44:48.661Z,62.99
2017-09-19T06:45:29.073Z,63.09
2017-09-19T06:46:09.513Z,62.99
2017-09-19T06:46:49.961Z,63.18
2017-09-19T06:47:30.407Z,62.99
2017-09-19T06:48:10.838Z,62.99
2017-09-19T06:48:51.425Z,63.09
2017-09-19T06:49:31.882Z,63.09
2017-09-19T06:50:12.326Z,62.99
2017-09-19T06:50:52.772Z,63.18
2017-09-19T06:51:33.233Z,63.18
2017-09-19T06:52:13.644Z,62.79
2017-09-19T06:52:54.085Z,63.09
2017-09-19T06:53:34.524Z,63.18
2017-09-19T06:54:14.987Z,62.7
2017-09-19T06:54:55.424Z,63.18
2017-09-19T06:55:35.864Z,62.6
2017-09-19T06:56:16.293Z,63.18
2017-09-19T06:56:56.741Z,63.09
2017-09-19T06:57:37.208Z,63.09
2017-09-19T06:58:17.785Z,63.09
2017-09-19T07:00:15.731Z,62.99
2017-09-19T07:00:56.167Z,63.09
2017-09-19T07:01:36.753Z,63.09
2017-09-19T07:02:17.201Z,62.89
2017-09-19T07:02:57.649Z,62.99
2017-09-19T07:03:38.108Z,63.09
2017-09-19T07:05:36.303Z,62.99
2017-09-19T07:06:16.759Z,62.99
2017-09-19T07:06:57.200Z,62.79
2017-09-19T07:07:37.650Z,62.99
2017-09-19T07:08:18.093Z,62.7
2017-09-19T07:08:58.542Z,62.79
2017-09-19T07:09:42.212Z,62.99
2017-09-19T07:10:22.651Z,62.99
2017-09-19T07:11:03.169Z,62.99
2017-09-19T07:11:43.621Z,62.79
2017-09-19T07:12:24.087Z,62.79
2017-09-19T07:13:04.517Z,62.89
2017-09-19T07:13:44.964Z,62.79
2017-09-19T07:14:25.411Z,62.79
2017-09-19T07:15:05.902Z,63.09
2017-09-19T07:15:46.318Z,62.7
2017-09-19T07:16:26.761Z,62.99
2017-09-19T07:17:07.210Z,62.99
2017-09-19T07:17:47.699Z,62.99
2017-09-19T07:18:28.145Z,62.89
2017-09-19T07:19:08.579Z,62.99
2017-09-19T07:19:49.024Z,62.79
2017-09-19T07:20:29.469Z,62.99
2017-09-19T07:21:09.920Z,62.79
2017-09-19T07:21:50.405Z,62.99
2017-09-19T07:22:30.850Z,62.99
2017-09-19T07:23:11.282Z,62.99
2017-09-19T07:23:51.754Z,62.99
2017-09-19T07:24:32.254Z,63.18
2017-09-19T07:25:12.699Z,62.99
2017-09-19T07:25:53.326Z,63.09
2017-09-19T07:26:33.774Z,63.09
2017-09-19T07:27:14.217Z,63.18
2017-09-19T07:27:54.668Z,63.37
2017-09-19T07:28:35.127Z,63.18
2017-09-19T07:29:15.577Z,62.79
2017-09-19T07:29:56.199Z,62.79
2017-09-19T07:30:36.674Z,62.7
2017-09-19T07:31:17.075Z,62.7
2017-09-19T07:31:57.520Z,62.7
2017-09-19T07:32:37.971Z,62.89
2017-09-19T07:33:18.547Z,62.79
2017-09-19T07:33:58.952Z,62.51
2017-09-19T07:34:39.431Z,62.79
2017-09-19T07:35:19.873Z,62.51
2017-09-19T07:36:00.671Z,62.51
2017-09-19T07:36:40.906Z,62.6
2017-09-19T07:37:21.337Z,62.41
2017-09-19T07:38:01.768Z,62.6
2017-09-19T07:38:42.224Z,62.51
2017-09-19T07:39:22.665Z,62.51
2017-09-19T07:40:03.101Z,62.6
2017-09-19T07:40:43.576Z,62.6
2017-09-19T07:41:23.997Z,62.51
2017-09-19T07:42:04.405Z,62.51
2017-09-19T07:42:44.896Z,62.51
2017-09-19T07:43:25.361Z,62.51
2017-09-19T07:44:05.871Z,62.6
2017-09-19T07:44:46.295Z,62.41
2017-09-19T07:45:26.777Z,62.31
2017-09-19T07:46:07.190Z,62.31
2017-09-19T07:46:47.656Z,62.22
2017-09-19T07:47:28.096Z,62.31
2017-09-19T07:48:08.524Z,62.41
2017-09-19T07:48:48.962Z,62.41
2017-09-19T07:49:29.384Z,62.51
2017-09-19T07:50:09.814Z,62.54
2017-09-19T07:50:50.265Z,62.51
2017-09-19T07:51:30.938Z,62.25
2017-09-19T07:52:11.375Z,62.51
2017-09-19T07:52:51.806Z,62.12
2017-09-19T07:55:05.567Z,61.96
2017-09-19T07:55:46.044Z,62.12
2017-09-19T07:56:26.478Z,62.25
2017-09-19T07:57:06.898Z,61.93
2017-09-19T07:57:47.346Z,62.22
2017-09-19T07:58:27.789Z,62.25
2017-09-19T07:59:08.228Z,61.96
2017-09-19T07:59:48.701Z,62.15
2017-09-19T08:00:29.172Z,61.96
2017-09-19T08:01:09.632Z,61.86
2017-09-19T08:01:50.066Z,62.05
2017-09-19T08:02:30.542Z,61.86
2017-09-19T08:03:10.979Z,61.86
2017-09-19T08:03:51.424Z,62.15
2017-09-19T08:04:31.825Z,61.96
2017-09-19T08:05:12.306Z,61.86
2017-09-19T08:05:52.688Z,61.86
2017-09-19T08:06:33.105Z,62.05
2017-09-19T08:07:13.534Z,61.96
2017-09-19T08:07:53.943Z,62.05
2017-09-19T08:08:34.425Z,62.05
2017-09-19T08:09:14.797Z,62.05
2017-09-19T08:11:27.557Z,62.12
2017-09-19T08:12:07.994Z,62.05
2017-09-19T08:12:48.565Z,62.15
2017-09-19T08:13:28.952Z,62.15
2017-09-19T08:14:09.360Z,62.05
2017-09-19T08:14:49.731Z,61.96
2017-09-19T08:15:30.181Z,62.05
2017-09-19T08:16:10.560Z,62.15
2017-09-19T08:16:50.940Z,61.96
2017-09-19T08:17:31.335Z,61.96
2017-09-19T08:18:11.744Z,62.15
2017-09-19T08:18:52.151Z,62.05
2017-09-19T08:19:32.572Z,62.15
2017-09-19T08:20:12.992Z,62.05
2017-09-19T08:22:25.761Z,61.96
2017-09-19T08:23:06.180Z,62.34
2017-09-19T08:23:46.601Z,62.34
2017-09-19T08:26:04.474Z,62.05
2017-09-19T08:26:44.902Z,62.15
2017-09-19T08:27:25.350Z,61.96
2017-09-19T08:28:05.795Z,61.86
2017-09-19T08:28:46.224Z,62.05
2017-09-19T08:29:26.626Z,62.15
2017-09-19T08:30:07.058Z,62.05
2017-09-19T08:30:47.446Z,62.05
2017-09-19T08:31:27.883Z,62.05
2017-09-19T08:32:08.388Z,61.96
2017-09-19T08:32:48.846Z,62.05
2017-09-19T08:33:29.266Z,62.05
2017-09-19T08:34:09.709Z,62.05
2017-09-19T08:36:22.464Z,61.86
2017-09-19T08:37:02.901Z,62.15
2017-09-19T08:37:43.333Z,62.05
2017-09-19T08:38:23.784Z,62.05
2017-09-19T08:39:04.205Z,61.96
2017-09-19T08:39:44.586Z,62.05
2017-09-19T08:40:25.009Z,61.86
2017-09-19T08:41:05.397Z,61.77
2017-09-19T08:41:45.791Z,61.86
2017-09-19T08:42:26.192Z,62.05
2017-09-19T08:43:06.590Z,61.77
2017-09-19T08:43:46.995Z,62.05
2017-09-19T08:44:27.412Z,62.15
2017-09-19T08:45:07.916Z,61.86
2017-09-19T08:45:48.297Z,62.05
2017-09-19T08:46:28.708Z,62.05
2017-09-19T08:47:09.148Z,61.77
2017-09-19T08:47:49.669Z,61.77
2017-09-19T08:48:30.066Z,62.25
2017-09-19T08:49:10.603Z,62.05
2017-09-19T08:49:50.987Z,62.05
2017-09-19T08:50:31.381Z,62.15
2017-09-19T08:51:11.774Z,62.15
2017-09-19T08:51:52.220Z,62.15
2017-09-19T08:52:32.666Z,61.96
2017-09-19T08:53:13.105Z,62.05
2017-09-19T08:53:53.551Z,62.05
2017-09-19T08:54:33.987Z,62.25
2017-09-19T08:55:14.402Z,61.96
2017-09-19T08:55:54.811Z,62.25
2017-09-19T08:56:35.477Z,61.96
2017-09-19T08:58:28.072Z,62.25
2017-09-19T08:59:08.516Z,61.67
2017-09-19T08:59:48.958Z,62.15
2017-09-19T09:00:29.382Z,61.67
2017-09-19T09:01:09.814Z,61.86
2017-09-19T09:01:50.198Z,61.86
2017-09-19T09:02:30.615Z,61.86
2017-09-19T09:03:11.026Z,61.77